Time;durP1;ratioP1;P1;durP2;ratioP2;P2;SDS_P1;SDS_P2;PMS_P1;PMS_P2;Temp;Humidity;BMP_temperature;BMP_pressure;BME280_temperature;BME280_humidity;BME280_pressure;Samples;Min_cycle;Max_cycle;Signal;HPM_P1;HPM_P2
2021/05/22 00:01:32;;;;;;;1.50;0.80;;;16.40;72.90;;;;;;5105253;28;20552;-71
2021/05/22 00:03:58;;;;;;;1.63;0.90;;;16.40;73.40;;;;;;5106268;28;20606;-71
2021/05/22 00:06:25;;;;;;;1.47;0.80;;;16.30;73.40;;;;;;5106742;28;20309;-71
2021/05/22 00:08:51;;;;;;;1.80;1.10;;;16.30;73.60;;;;;;5098980;28;20255;-71
2021/05/22 00:11:17;;;;;;;1.87;0.87;;;16.30;74.00;;;;;;5105396;28;20283;-70
2021/05/22 00:13:44;;;;;;;2.37;0.93;;;16.30;74.30;;;;;;5099681;28;20302;-71
2021/05/22 00:16:11;;;;;;;1.17;0.60;;;16.30;74.60;;;;;;5096055;28;20203;-71
2021/05/22 00:18:37;;;;;;;1.43;0.70;;;16.30;75.00;;;;;;5096660;28;20208;-70
2021/05/22 00:21:04;;;;;;;2.67;0.70;;;16.30;75.50;;;;;;5094868;28;20212;-71
2021/05/22 00:23:31;;;;;;;1.17;0.80;;;16.30;76.10;;;;;;5093735;28;20207;-71
2021/05/22 00:25:57;;;;;;;1.67;0.80;;;16.20;76.40;;;;;;5091884;28;20219;-72
2021/05/22 00:28:24;;;;;;;1.73;0.90;;;16.30;77.00;;;;;;5091881;28;20204;-71
2021/05/22 00:30:50;;;;;;;1.70;0.87;;;16.20;77.40;;;;;;5095072;28;20200;-71
2021/05/22 00:33:17;;;;;;;1.73;0.80;;;16.30;78.00;;;;;;5105073;28;20644;-71
2021/05/22 00:35:44;;;;;;;1.27;0.90;;;16.20;78.20;;;;;;5094811;28;20683;-71
2021/05/22 00:38:10;;;;;;;1.13;0.83;;;16.20;78.70;;;;;;5098433;28;20284;-71
2021/05/22 00:40:37;;;;;;;1.73;0.70;;;16.20;79.40;;;;;;5104365;28;20586;-71
2021/05/22 00:43:03;;;;;;;1.37;0.83;;;16.10;80.10;;;;;;5093567;28;20291;-71
2021/05/22 00:45:31;;;;;;;1.93;0.90;;;16.10;80.70;;;;;;5091729;28;20674;-72
2021/05/22 00:47:57;;;;;;;1.33;0.90;;;16.10;81.20;;;;;;5096203;28;20522;-71
2021/05/22 00:50:27;;;;;;;0.90;0.90;;;16.00;82.10;;;;;;5093407;28;20330;-71
2021/05/22 00:52:54;;;;;;;0.70;0.70;;;16.00;82.90;;;;;;5095837;28;20234;-70
2021/05/22 00:55:21;;;;;;;2.53;0.93;;;15.80;83.50;;;;;;5103880;28;20281;-71
2021/05/22 00:57:47;;;;;;;0.90;0.80;;;15.90;84.40;;;;;;5089474;28;20205;-72
2021/05/22 01:00:16;;;;;;;2.37;0.77;;;15.90;85.30;;;;;;5092080;28;20304;-71
2021/05/22 01:02:44;;;;;;;1.07;0.73;;;15.80;86.00;;;;;;5109542;28;20624;-70
2021/05/22 01:05:11;;;;;;;0.60;0.60;;;15.80;86.90;;;;;;5103269;28;20583;-70
2021/05/22 01:07:40;;;;;;;1.90;0.70;;;15.70;87.50;;;;;;5096890;28;20215;-72
2021/05/22 01:10:08;;;;;;;2.07;1.77;;;15.70;88.60;;;;;;5101417;28;20216;-72
2021/05/22 01:12:38;;;;;;;2.03;1.70;;;15.70;89.70;;;;;;5108036;28;20210;-70
2021/05/22 01:15:07;;;;;;;2.07;1.73;;;15.60;90.30;;;;;;5109813;28;20286;-70
2021/05/22 01:17:36;;;;;;;5.97;4.30;;;15.60;90.60;;;;;;5104667;28;20212;-71
2021/05/22 01:20:09;;;;;;;5.10;3.90;;;15.60;91.10;;;;;;5096499;28;20209;-70
2021/05/22 01:22:41;;;;;;;9.63;6.13;;;15.60;91.50;;;;;;5095869;28;20231;-71
2021/05/22 01:25:19;;;;;;;13.63;5.97;;;15.50;91.80;;;;;;5110993;28;20284;-70
2021/05/22 01:27:45;;;;;;;5.47;3.33;;;15.50;92.30;;;;;;5104888;28;20214;-70
2021/05/22 01:30:13;;;;;;;5.70;2.20;;;15.50;92.70;;;;;;5104259;28;20292;-69
2021/05/22 01:32:41;;;;;;;1.17;0.70;;;15.50;93.20;;;;;;5094365;28;20603;-71
2021/05/22 01:35:09;;;;;;;0.67;0.67;;;15.40;93.60;;;;;;5100283;28;20225;-70
2021/05/22 01:37:35;;;;;;;0.93;0.80;;;15.40;94.10;;;;;;5095976;28;20276;-71
2021/05/22 01:40:01;;;;;;;1.23;0.70;;;15.30;94.60;;;;;;5097950;28;20276;-71
2021/05/22 01:42:28;;;;;;;0.83;0.80;;;15.30;95.30;;;;;;5109457;28;20311;-72
2021/05/22 01:44:55;;;;;;;2.57;0.80;;;15.20;95.70;;;;;;5102746;28;20238;-70
2021/05/22 01:47:22;;;;;;;1.63;0.60;;;15.20;96.30;;;;;;5094726;28;20210;-71
2021/05/22 01:49:51;;;;;;;0.80;0.80;;;15.20;96.90;;;;;;5094896;28;20378;-71
2021/05/22 01:52:19;;;;;;;0.60;0.50;;;15.10;97.30;;;;;;5101305;28;20253;-71
2021/05/22 01:54:48;;;;;;;1.20;0.70;;;15.10;97.70;;;;;;5095508;28;20323;-71
2021/05/22 01:57:15;;;;;;;2.50;0.60;;;15.10;98.20;;;;;;5097149;28;20762;-71
2021/05/22 01:59:42;;;;;;;2.23;0.70;;;15.10;98.80;;;;;;5104685;28;20564;-71
2021/05/22 02:02:09;;;;;;;2.60;0.77;;;15.10;99.10;;;;;;5097116;28;20200;-71
2021/05/22 02:04:40;;;;;;;0.80;0.80;;;15.10;99.50;;;;;;5095424;28;20288;-70
2021/05/22 02:07:07;;;;;;;1.50;0.90;;;15.00;99.90;;;;;;5113450;28;20247;-71
2021/05/22 02:09:34;;;;;;;1.17;0.83;;;15.00;99.90;;;;;;5102090;28;20208;-70
2021/05/22 02:12:04;;;;;;;1.40;0.83;;;14.90;99.90;;;;;;5094660;28;20201;-71
2021/05/22 02:14:34;;;;;;;1.30;0.70;;;14.90;99.90;;;;;;5107600;28;20258;-71
2021/05/22 02:17:05;;;;;;;2.53;0.90;;;14.90;99.90;;;;;;5093315;28;20211;-72
2021/05/22 02:19:33;;;;;;;1.53;0.90;;;14.90;99.90;;;;;;5107496;28;20208;-70
2021/05/22 02:22:02;;;;;;;0.97;0.80;;;14.80;99.90;;;;;;5110140;28;20204;-70
2021/05/22 02:24:28;;;;;;;1.83;0.87;;;14.80;99.90;;;;;;5103205;28;20199;-71
2021/05/22 02:26:57;;;;;;;2.07;1.10;;;14.80;99.90;;;;;;5111793;28;20660;-71
2021/05/22 02:29:26;;;;;;;2.60;1.03;;;14.70;99.90;;;;;;5096909;28;20213;-70
2021/05/22 02:31:53;;;;;;;2.97;1.00;;;14.70;99.90;;;;;;5093173;28;20207;-71
2021/05/22 02:34:33;;;;;;;1.37;0.90;;;14.70;99.90;;;;;;5099324;28;20223;-71
2021/05/22 02:37:01;;;;;;;1.73;1.13;;;14.60;99.90;;;;;;5109493;28;20209;-70
2021/05/22 02:39:28;;;;;;;1.47;1.07;;;14.60;99.90;;;;;;5104088;28;20291;-71
2021/05/22 02:41:58;;;;;;;2.03;1.00;;;14.60;99.90;;;;;;5092851;28;20692;-69
2021/05/22 02:44:27;;;;;;;3.00;1.00;;;14.50;99.90;;;;;;5102643;28;20220;-70
2021/05/22 02:46:55;;;;;;;2.63;1.57;;;14.50;99.90;;;;;;5102839;28;20549;-70
2021/05/22 02:49:27;;;;;;;1.97;1.20;;;14.40;99.90;;;;;;5107863;28;20646;-70
2021/05/22 02:51:56;;;;;;;2.73;1.20;;;14.40;99.90;;;;;;5104685;28;20314;-69
2021/05/22 02:54:24;;;;;;;1.83;0.70;;;14.40;99.90;;;;;;5110972;28;20215;-71
2021/05/22 02:56:53;;;;;;;3.47;0.93;;;14.30;99.90;;;;;;5106279;28;20204;-68
2021/05/22 02:59:21;;;;;;;1.67;1.00;;;14.30;99.90;;;;;;5108643;28;20210;-70
2021/05/22 03:01:47;;;;;;;1.33;1.20;;;14.30;99.90;;;;;;5105125;27;20208;-69
2021/05/22 03:04:16;;;;;;;2.13;1.10;;;14.30;99.90;;;;;;5108302;28;20208;-68
2021/05/22 03:06:44;;;;;;;4.40;1.10;;;14.30;99.90;;;;;;5097572;28;20551;-69
2021/05/22 03:09:10;;;;;;;3.07;1.40;;;14.20;99.90;;;;;;5101515;28;20302;-68
2021/05/22 03:11:37;;;;;;;2.00;1.23;;;14.20;99.90;;;;;;5096498;28;20209;-69
2021/05/22 03:14:04;;;;;;;2.00;1.40;;;14.20;99.90;;;;;;5092707;28;20224;-69
2021/05/22 03:16:30;;;;;;;3.53;1.30;;;14.20;99.90;;;;;;5108669;28;20295;-69
2021/05/22 03:18:58;;;;;;;2.73;2.00;;;14.20;99.90;;;;;;5106317;28;20657;-69
2021/05/22 03:21:25;;;;;;;2.77;1.30;;;14.20;99.90;;;;;;5105819;28;20203;-69
2021/05/22 03:23:53;;;;;;;4.60;1.50;;;14.20;99.90;;;;;;5112906;28;20721;-68
2021/05/22 03:26:19;;;;;;;2.23;1.40;;;14.20;99.90;;;;;;5094897;28;20208;-68
2021/05/22 03:28:46;;;;;;;2.17;1.40;;;14.20;99.90;;;;;;5094837;28;20209;-70
2021/05/22 03:31:12;;;;;;;2.73;1.33;;;14.20;99.90;;;;;;5093034;28;20291;-69
2021/05/22 03:33:39;;;;;;;4.43;1.30;;;14.20;99.90;;;;;;5105149;28;20239;-69
2021/05/22 03:36:06;;;;;;;1.23;1.13;;;14.20;99.90;;;;;;5100284;28;20276;-70
2021/05/22 03:38:32;;;;;;;4.57;2.03;;;14.20;99.90;;;;;;5104294;28;20200;-69
2021/05/22 03:40:59;;;;;;;1.80;1.20;;;14.20;99.90;;;;;;5101340;28;20239;-70
2021/05/22 03:43:26;;;;;;;1.63;1.50;;;14.20;99.90;;;;;;5095709;28;20212;-71
2021/05/22 03:45:53;;;;;;;4.13;1.50;;;14.20;99.90;;;;;;5100269;28;20584;-71
2021/05/22 03:48:19;;;;;;;1.53;1.33;;;14.20;99.90;;;;;;5098651;28;20299;-70
2021/05/22 03:50:46;;;;;;;3.83;1.27;;;14.20;99.90;;;;;;5098473;28;20284;-71
2021/05/22 03:53:13;;;;;;;2.80;1.37;;;14.20;99.90;;;;;;5099384;28;20649;-69
2021/05/22 03:55:39;;;;;;;1.87;1.50;;;14.30;99.90;;;;;;5098952;28;20220;-69
2021/05/22 03:58:07;;;;;;;4.53;1.63;;;14.30;99.90;;;;;;5102102;28;20214;-69
2021/05/22 04:00:34;;;;;;;3.47;1.43;;;14.30;99.90;;;;;;5095185;28;20631;-70
2021/05/22 04:03:00;;;;;;;3.73;1.43;;;14.40;99.90;;;;;;5100536;28;20624;-71
2021/05/22 04:05:27;;;;;;;2.23;1.03;;;14.40;99.90;;;;;;5091881;28;20273;-72
2021/05/22 04:07:53;;;;;;;1.93;1.73;;;14.40;99.90;;;;;;5095787;28;20196;-71
2021/05/22 04:10:20;;;;;;;5.50;1.10;;;14.40;99.90;;;;;;5100076;28;20298;-72
2021/05/22 04:12:46;;;;;;;2.60;1.20;;;14.40;99.90;;;;;;5097256;28;20197;-71
2021/05/22 04:15:14;;;;;;;6.27;1.63;;;14.50;99.90;;;;;;5099388;28;20219;-69
2021/05/22 04:17:41;;;;;;;2.97;1.10;;;14.50;99.90;;;;;;5103318;28;20334;-71
2021/05/22 04:20:08;;;;;;;2.37;1.20;;;14.50;99.90;;;;;;5091964;28;20204;-72
2021/05/22 04:22:34;;;;;;;4.20;1.17;;;14.60;99.90;;;;;;5092275;28;20354;-72
2021/05/22 04:25:00;;;;;;;2.20;1.10;;;14.70;99.90;;;;;;5094057;28;20203;-70
2021/05/22 04:27:27;;;;;;;1.40;1.20;;;14.70;99.90;;;;;;5107125;28;20196;-72
2021/05/22 04:29:53;;;;;;;1.70;1.37;;;14.70;99.90;;;;;;5090612;28;20211;-70
2021/05/22 04:32:21;;;;;;;0.87;0.83;;;14.80;99.90;;;;;;5106766;28;20303;-70
2021/05/22 04:34:47;;;;;;;1.27;1.00;;;14.80;99.90;;;;;;5107508;28;20684;-71
2021/05/22 04:37:13;;;;;;;2.20;1.07;;;14.90;99.90;;;;;;5101940;28;20239;-72
2021/05/22 04:39:40;;;;;;;1.13;0.90;;;15.00;99.90;;;;;;5096437;28;20209;-70
2021/05/22 04:42:07;;;;;;;1.10;0.97;;;15.00;99.90;;;;;;5107001;28;20208;-71
2021/05/22 04:44:33;;;;;;;1.30;0.97;;;15.10;99.90;;;;;;5103351;28;20196;-70
2021/05/22 04:46:59;;;;;;;3.23;1.30;;;15.10;99.90;;;;;;5110665;28;20603;-71
2021/05/22 04:49:27;;;;;;;3.60;1.23;;;15.20;99.90;;;;;;5105171;28;20648;-70
2021/05/22 04:51:54;;;;;;;2.40;0.90;;;15.20;99.90;;;;;;5103497;28;20303;-70
2021/05/22 04:54:21;;;;;;;2.53;1.00;;;15.30;99.90;;;;;;5111928;28;20248;-71
2021/05/22 04:56:47;;;;;;;7.40;1.60;;;15.30;99.90;;;;;;5101966;28;20208;-71
2021/05/22 04:59:14;;;;;;;0.97;0.97;;;15.30;99.90;;;;;;5101213;28;20208;-71
2021/05/22 05:01:40;;;;;;;1.03;0.80;;;15.30;99.90;;;;;;5095096;28;20205;-70
2021/05/22 05:04:07;;;;;;;2.20;1.10;;;15.40;99.90;;;;;;5110112;28;20230;-71
2021/05/22 05:06:35;;;;;;;1.43;1.33;;;15.30;99.90;;;;;;5107816;28;20207;-71
2021/05/22 05:09:02;;;;;;;1.67;1.03;;;15.30;99.90;;;;;;5102129;28;20200;-71
2021/05/22 05:11:31;;;;;;;1.43;0.90;;;15.30;99.90;;;;;;5102237;28;20303;-71
2021/05/22 05:13:57;;;;;;;1.43;0.93;;;15.40;99.90;;;;;;5096873;28;20704;-71
2021/05/22 05:16:24;;;;;;;1.50;0.90;;;15.40;99.90;;;;;;5099950;28;20232;-71
2021/05/22 05:18:50;;;;;;;4.30;1.00;;;15.40;99.90;;;;;;5104230;28;20311;-71
2021/05/22 05:21:17;;;;;;;2.07;1.07;;;15.50;99.90;;;;;;5098490;28;20200;-71
2021/05/22 05:23:44;;;;;;;1.37;0.90;;;15.50;99.90;;;;;;5110695;28;20215;-70
2021/05/22 05:26:11;;;;;;;2.87;0.80;;;15.60;99.90;;;;;;5112498;28;20204;-71
2021/05/22 05:28:37;;;;;;;0.87;0.83;;;15.60;99.90;;;;;;5092210;28;20236;-70
2021/05/22 05:31:04;;;;;;;1.80;0.93;;;15.70;99.90;;;;;;5100010;28;20211;-69
2021/05/22 05:33:31;;;;;;;2.17;0.97;;;15.80;99.90;;;;;;5107137;28;20207;-69
2021/05/22 05:35:57;;;;;;;0.83;0.80;;;15.90;99.90;;;;;;5094662;28;20266;-68
2021/05/22 05:38:24;;;;;;;1.60;0.77;;;15.90;99.90;;;;;;5095823;28;20208;-69
2021/05/22 05:40:54;;;;;;;1.33;0.90;;;16.10;99.90;;;;;;5093517;28;20289;-72
2021/05/22 05:43:20;;;;;;;4.37;1.10;;;16.20;99.90;;;;;;5092286;28;20205;-69
2021/05/22 05:45:48;;;;;;;1.33;0.80;;;16.40;99.90;;;;;;5093767;28;20296;-70
2021/05/22 05:48:15;;;;;;;0.93;0.70;;;16.40;99.90;;;;;;5093465;28;20334;-69
2021/05/22 05:50:41;;;;;;;3.40;0.83;;;16.50;99.90;;;;;;5101284;28;20327;-70
2021/05/22 05:53:07;;;;;;;1.07;0.50;;;16.60;99.90;;;;;;5108617;28;20234;-68
2021/05/22 05:55:34;;;;;;;1.73;0.90;;;16.70;99.90;;;;;;5108692;28;20349;-69
2021/05/22 05:58:01;;;;;;;0.60;0.60;;;16.70;99.90;;;;;;5098566;28;20207;-69
2021/05/22 06:00:28;;;;;;;0.73;0.70;;;16.70;99.90;;;;;;5099469;28;20637;-69
2021/05/22 06:02:55;;;;;;;1.00;0.90;;;16.70;99.90;;;;;;5101856;28;20253;-69
2021/05/22 06:05:21;;;;;;;0.60;0.60;;;16.70;99.90;;;;;;5094883;28;20197;-69
2021/05/22 06:07:48;;;;;;;1.33;0.80;;;16.70;99.90;;;;;;5096292;28;20220;-68
2021/05/22 06:10:14;;;;;;;0.60;0.60;;;16.80;99.90;;;;;;5106224;28;20234;-69
2021/05/22 06:12:42;;;;;;;1.53;0.83;;;16.80;99.90;;;;;;5104016;28;20224;-68
2021/05/22 06:15:21;;;;;;;2.73;0.90;;;16.90;99.90;;;;;;5109279;28;20230;-68
2021/05/22 06:17:48;;;;;;;0.60;0.60;;;17.00;99.90;;;;;;5106115;28;20545;-68
2021/05/22 06:20:14;;;;;;;1.17;0.87;;;16.90;99.70;;;;;;5105028;28;20213;-63
2021/05/22 06:22:41;;;;;;;0.90;0.90;;;17.00;99.80;;;;;;5097942;28;20327;-65
2021/05/22 06:25:09;;;;;;;1.57;0.70;;;17.10;99.80;;;;;;5108722;28;20204;-65
2021/05/22 06:27:36;;;;;;;1.87;0.70;;;17.10;99.60;;;;;;5100547;28;20216;-64
2021/05/22 06:30:03;;;;;;;0.77;0.77;;;17.20;99.40;;;;;;5092286;28;20200;-64
2021/05/22 06:32:30;;;;;;;1.63;1.00;;;17.20;99.20;;;;;;5093467;28;20204;-66
2021/05/22 06:34:57;;;;;;;1.00;0.73;;;17.30;99.20;;;;;;5094557;28;20221;-65
2021/05/22 06:37:24;;;;;;;1.10;0.70;;;17.30;98.90;;;;;;5100390;28;20204;-64
2021/05/22 06:39:51;;;;;;;2.33;0.80;;;17.30;99.10;;;;;;5100442;28;20208;-64
2021/05/22 06:42:17;;;;;;;1.27;0.70;;;17.40;98.50;;;;;;5102480;28;20207;-65
2021/05/22 06:44:49;;;;;;;1.07;0.83;;;17.50;98.50;;;;;;5096933;28;20299;-65
2021/05/22 06:47:15;;;;;;;2.63;1.40;;;17.50;98.90;;;;;;5101061;28;20220;-64
2021/05/22 06:49:43;;;;;;;1.67;1.30;;;17.70;98.60;;;;;;5096920;28;20637;-64
2021/05/22 06:52:09;;;;;;;2.23;1.97;;;17.80;98.50;;;;;;5103361;28;20211;-65
2021/05/22 06:54:35;;;;;;;4.83;2.53;;;17.80;97.90;;;;;;5092038;28;20568;-68
2021/05/22 06:57:04;;;;;;;4.00;1.80;;;17.90;97.20;;;;;;5102997;28;20267;-64
2021/05/22 06:59:30;;;;;;;3.97;2.90;;;17.90;96.90;;;;;;5100307;28;20197;-64
2021/05/22 07:01:57;;;;;;;0.77;0.70;;;18.00;97.20;;;;;;5102789;28;20354;-64
2021/05/22 07:04:23;;;;;;;1.00;0.90;;;18.10;96.70;;;;;;5101629;28;20204;-65
2021/05/22 07:06:50;;;;;;;1.43;1.13;;;18.40;96.30;;;;;;5095079;28;20204;-64
2021/05/22 07:09:16;;;;;;;2.00;1.20;;;18.50;95.90;;;;;;5100292;28;20208;-64
2021/05/22 07:11:43;;;;;;;2.20;0.90;;;18.50;95.10;;;;;;5100672;28;20208;-65
2021/05/22 07:14:09;;;;;;;2.50;1.20;;;18.50;94.90;;;;;;5099854;28;20623;-64
2021/05/22 07:16:35;;;;;;;2.17;0.80;;;18.60;94.70;;;;;;5089818;28;20204;-62
2021/05/22 07:19:02;;;;;;;2.23;0.70;;;18.70;94.30;;;;;;5093056;28;20216;-63
2021/05/22 07:21:28;;;;;;;2.33;1.00;;;18.70;93.70;;;;;;5082926;28;20201;-64
2021/05/22 07:23:56;;;;;;;1.43;0.87;;;18.70;93.80;;;;;;5090575;28;20299;-64
2021/05/22 07:26:22;;;;;;;1.83;0.93;;;18.60;93.60;;;;;;5091740;28;20211;-62
2021/05/22 07:28:48;;;;;;;5.87;1.07;;;18.50;93.90;;;;;;5092967;28;20247;-63
2021/05/22 07:31:15;;;;;;;1.20;0.80;;;18.30;94.20;;;;;;5093725;28;20208;-66
2021/05/22 07:33:42;;;;;;;3.33;0.90;;;18.20;95.10;;;;;;5097049;28;20208;-64
2021/05/22 07:36:09;;;;;;;2.60;1.00;;;18.10;95.40;;;;;;5100821;28;20228;-64
2021/05/22 07:38:37;;;;;;;3.33;0.90;;;18.00;95.90;;;;;;5093224;28;20591;-68
2021/05/22 07:41:04;;;;;;;1.70;0.97;;;17.90;96.10;;;;;;5093133;28;20610;-66
2021/05/22 07:43:30;;;;;;;1.57;0.97;;;17.90;96.40;;;;;;5095068;28;20269;-65
2021/05/22 07:45:57;;;;;;;1.40;0.70;;;18.00;96.50;;;;;;5100143;28;20204;-66
2021/05/22 07:48:24;;;;;;;1.00;0.90;;;18.10;96.20;;;;;;5102573;28;20566;-64
2021/05/22 07:50:52;;;;;;;2.20;1.00;;;18.20;96.00;;;;;;5099301;28;20245;-66
2021/05/22 07:53:19;;;;;;;1.03;0.63;;;18.30;95.70;;;;;;5092307;28;20257;-65
2021/05/22 07:55:45;;;;;;;2.90;0.90;;;18.30;95.10;;;;;;5090620;28;20224;-65
2021/05/22 07:58:15;;;;;;;2.60;1.00;;;18.40;95.30;;;;;;5092957;28;20637;-65
2021/05/22 08:00:42;;;;;;;1.00;0.90;;;18.40;95.20;;;;;;5082718;28;20637;-66
2021/05/22 08:03:08;;;;;;;0.80;0.70;;;18.50;95.10;;;;;;5092899;28;20219;-68
2021/05/22 08:05:35;;;;;;;2.67;1.43;;;18.60;94.60;;;;;;5092702;28;20291;-66
2021/05/22 08:08:01;;;;;;;2.03;0.82;;;18.60;94.30;;;;;;5111003;28;20241;-65
2021/05/22 08:10:28;;;;;;;3.37;1.07;;;18.70;94.50;;;;;;5092132;28;20291;-66
2021/05/22 08:12:54;;;;;;;1.10;0.80;;;18.80;93.60;;;;;;5099539;28;20211;-66
2021/05/22 08:15:21;;;;;;;2.97;1.10;;;18.80;92.80;;;;;;5089524;28;20231;-66
2021/05/22 08:17:47;;;;;;;1.67;1.20;;;18.70;92.90;;;;;;5093581;28;20228;-65
2021/05/22 08:20:14;;;;;;;2.47;0.80;;;18.60;93.10;;;;;;5078090;28;20310;-65
2021/05/22 08:22:41;;;;;;;0.53;0.50;;;18.60;93.40;;;;;;5093160;28;20242;-65
2021/05/22 08:25:08;;;;;;;1.37;0.80;;;18.50;92.80;;;;;;5078059;28;20196;-65
2021/05/22 08:27:35;;;;;;;2.07;0.70;;;18.50;92.60;;;;;;5092252;28;20606;-70
2021/05/22 08:30:02;;;;;;;1.50;0.90;;;18.60;92.80;;;;;;5092221;28;20581;-65
2021/05/22 08:32:29;;;;;;;2.20;0.80;;;18.60;92.80;;;;;;5091985;28;20657;-68
2021/05/22 08:34:55;;;;;;;3.87;0.77;;;18.50;92.20;;;;;;5090761;28;20766;-70
2021/05/22 08:37:23;;;;;;;2.03;1.40;;;18.50;92.30;;;;;;5097387;28;20208;-70
2021/05/22 08:39:50;;;;;;;1.03;0.80;;;18.40;92.50;;;;;;5094485;28;20600;-66
2021/05/22 08:42:20;;;;;;;1.17;0.70;;;18.40;92.80;;;;;;5101648;28;20207;-71
2021/05/22 08:44:47;;;;;;;2.47;0.63;;;18.30;93.30;;;;;;5103129;28;20206;-70
2021/05/22 08:47:14;;;;;;;1.10;0.80;;;18.30;93.90;;;;;;5103608;28;20353;-63
2021/05/22 08:49:42;;;;;;;0.80;0.80;;;18.30;94.70;;;;;;5084410;28;20208;-62
2021/05/22 08:52:13;;;;;;;0.97;0.83;;;18.10;95.40;;;;;;5107273;28;20700;-64
2021/05/22 08:54:39;;;;;;;1.63;0.87;;;18.00;96.50;;;;;;5100186;28;20216;-65
2021/05/22 08:57:07;;;;;;;1.70;0.73;;;18.00;97.20;;;;;;5092037;28;20215;-64
2021/05/22 08:59:38;;;;;;;0.90;0.80;;;18.00;98.10;;;;;;5087240;28;20288;-63
2021/05/22 09:02:05;;;;;;;1.23;0.90;;;18.00;98.10;;;;;;5105568;28;20294;-62
2021/05/22 09:04:31;;;;;;;2.37;0.90;;;17.90;98.80;;;;;;5103337;28;20212;-63
2021/05/22 09:07:04;;;;;;;1.97;0.90;;;17.90;99.40;;;;;;5103240;28;20203;-67
2021/05/22 09:09:42;;;;;;;1.67;1.00;;;17.80;99.90;;;;;;5107485;28;20197;-70
2021/05/22 09:12:09;;;;;;;1.97;1.10;;;17.70;99.90;;;;;;5099404;28;20247;-67
2021/05/22 09:14:44;;;;;;;1.10;0.90;;;17.60;99.90;;;;;;5106383;28;20216;-65
2021/05/22 09:17:13;;;;;;;3.37;1.10;;;17.60;99.90;;;;;;5094763;28;20653;-67
2021/05/22 09:19:39;;;;;;;1.10;1.00;;;17.50;99.90;;;;;;5104548;28;20269;-64
2021/05/22 09:22:18;;;;;;;4.53;1.10;;;17.40;99.90;;;;;;5090919;28;20300;-63
2021/05/22 09:24:58;;;;;;;3.67;1.30;;;17.30;99.90;;;;;;5095021;28;20204;-64
2021/05/22 09:27:29;;;;;;;1.23;1.10;;;17.20;99.90;;;;;;5101690;28;20224;-68
2021/05/22 09:29:55;;;;;;;2.40;1.30;;;17.10;99.90;;;;;;5101522;28;20652;-68
2021/05/22 09:32:22;;;;;;;2.00;1.23;;;17.00;99.90;;;;;;5100846;28;20297;-68
2021/05/22 09:34:50;;;;;;;1.43;1.20;;;17.00;99.90;;;;;;5099476;28;20227;-68
2021/05/22 09:37:18;;;;;;;1.27;1.00;;;16.90;99.90;;;;;;5105334;28;20208;-64
2021/05/22 09:39:48;;;;;;;2.37;1.30;;;16.90;99.90;;;;;;5101848;28;20201;-63
2021/05/22 09:42:14;;;;;;;3.87;1.13;;;16.90;99.90;;;;;;5099784;28;20204;-64
2021/05/22 09:44:41;;;;;;;2.03;0.90;;;16.90;99.90;;;;;;5112033;28;20285;-65
2021/05/22 09:47:07;;;;;;;2.63;1.10;;;16.80;99.90;;;;;;5108436;28;20614;-67
2021/05/22 09:49:36;;;;;;;2.47;1.00;;;16.80;99.90;;;;;;5105154;28;20210;-64
2021/05/22 09:52:04;;;;;;;1.73;1.17;;;16.70;99.90;;;;;;5104922;28;20301;-63
2021/05/22 09:54:43;;;;;;;1.90;1.13;;;16.60;99.90;;;;;;5105266;28;20296;-65
2021/05/22 09:57:11;;;;;;;2.90;1.00;;;16.60;99.90;;;;;;5102768;28;20253;-67
2021/05/22 09:59:38;;;;;;;1.80;1.20;;;16.50;99.90;;;;;;5107902;28;20769;-68
2021/05/22 10:02:04;;;;;;;2.23;1.43;;;16.50;99.90;;;;;;5109273;28;20713;-69
2021/05/22 10:04:31;;;;;;;2.83;1.30;;;16.50;99.90;;;;;;5102600;28;20653;-66
2021/05/22 10:06:57;;;;;;;3.13;1.50;;;16.50;99.90;;;;;;5101847;28;20204;-67
2021/05/22 10:09:25;;;;;;;2.87;1.80;;;16.50;99.90;;;;;;5106148;28;20239;-63
2021/05/22 10:12:08;;;;;;;1.40;1.30;;;16.50;99.90;;;;;;5107214;28;20208;-63
2021/05/22 10:14:37;;;;;;;3.53;1.60;;;16.40;99.90;;;;;;5102573;28;20224;-64
2021/05/22 10:17:04;;;;;;;2.50;1.80;;;16.40;99.90;;;;;;5106479;28;20204;-64
2021/05/22 10:19:31;;;;;;;3.07;1.97;;;16.30;99.90;;;;;;5104676;28;20242;-64
2021/05/22 10:21:58;;;;;;;2.30;1.87;;;16.30;99.90;;;;;;5105746;28;20619;-63
2021/05/22 10:24:25;;;;;;;6.27;2.90;;;16.30;99.90;;;;;;5096956;28;20292;-63
2021/05/22 10:26:52;;;;;;;2.50;2.17;;;16.20;99.90;;;;;;5105224;28;20262;-64
2021/05/22 10:29:20;;;;;;;2.80;1.93;;;16.20;99.90;;;;;;5107507;28;20294;-65
2021/05/22 10:31:47;;;;;;;4.27;2.00;;;16.10;99.90;;;;;;5107474;28;20203;-66
2021/05/22 10:34:15;;;;;;;2.57;1.57;;;15.90;99.90;;;;;;5111646;28;20207;-65
2021/05/22 10:36:50;;;;;;;2.03;1.30;;;15.90;99.90;;;;;;5108373;28;20676;-66
2021/05/22 10:39:43;;;;;;;3.10;1.60;;;15.80;99.90;;;;;;5099680;28;20245;-66
2021/05/22 10:42:31;;;;;;;2.00;1.60;;;15.70;99.90;;;;;;5103236;28;20207;-68
2021/05/22 10:44:59;;;;;;;2.57;1.80;;;15.60;99.90;;;;;;5102393;28;20281;-67
2021/05/22 10:47:28;;;;;;;2.83;1.73;;;15.50;99.90;;;;;;5103539;28;20280;-64
2021/05/22 10:49:57;;;;;;;4.20;2.33;;;15.40;99.90;;;;;;5102883;28;20208;-62
2021/05/22 10:52:25;;;;;;;4.07;2.30;;;15.40;99.90;;;;;;5107397;28;20231;-63
2021/05/22 10:54:59;;;;;;;3.23;2.00;;;15.40;99.90;;;;;;5105916;28;20260;-63
2021/05/22 10:57:25;;;;;;;2.90;1.80;;;15.40;99.90;;;;;;5105218;28;20258;-63
2021/05/22 11:00:19;;;;;;;4.17;1.97;;;15.40;99.90;;;;;;5103654;28;20606;-63
2021/05/22 11:02:48;;;;;;;2.27;2.00;;;15.40;99.90;;;;;;5107534;28;20238;-63
2021/05/22 11:05:34;;;;;;;2.43;1.90;;;15.40;99.90;;;;;;5102407;28;20204;-62
2021/05/22 11:08:29;;;;;;;5.83;4.10;;;15.50;99.90;;;;;;5099165;28;20208;-63
2021/05/22 11:11:01;;;;;;;3.87;2.33;;;15.60;99.90;;;;;;5099769;28;20210;-65
2021/05/22 11:13:45;;;;;;;2.53;2.10;;;15.60;99.90;;;;;;5096301;28;20288;-70
2021/05/22 11:16:33;;;;;;;3.20;2.63;;;15.60;99.90;;;;;;5103055;28;20691;-64
2021/05/22 11:19:02;;;;;;;4.10;2.40;;;15.70;99.90;;;;;;5094548;28;20196;-62
2021/05/22 11:21:28;;;;;;;4.50;2.00;;;15.70;99.90;;;;;;5092449;28;20292;-64
2021/05/22 11:24:09;;;;;;;3.07;2.20;;;15.80;99.90;;;;;;5101260;28;20299;-63
2021/05/22 11:26:58;;;;;;;5.17;2.57;;;15.90;99.90;;;;;;5097801;28;20232;-63
2021/05/22 11:29:54;;;;;;;3.83;1.90;;;15.90;99.90;;;;;;5099850;28;20262;-63
2021/05/22 11:32:57;;;;;;;3.00;2.23;;;15.90;99.90;;;;;;5100202;28;20522;-64
2021/05/22 11:35:47;;;;;;;3.27;2.50;;;15.90;99.90;;;;;;5100044;28;20239;-64
2021/05/22 11:38:33;;;;;;;3.73;2.60;;;15.90;99.90;;;;;;5099442;28;20231;-64
2021/05/22 11:41:01;;;;;;;3.83;2.13;;;16.00;99.90;;;;;;5096878;28;20200;-64
2021/05/22 11:43:30;;;;;;;3.37;2.50;;;16.00;99.90;;;;;;5095730;28;20547;-65
2021/05/22 11:45:59;;;;;;;3.23;2.10;;;16.00;99.90;;;;;;5101178;28;20201;-64
2021/05/22 11:48:28;;;;;;;3.70;2.00;;;16.10;99.90;;;;;;5101088;28;20214;-71
2021/05/22 11:51:06;;;;;;;3.43;2.23;;;16.00;99.90;;;;;;5091781;28;20323;-62
2021/05/22 11:53:33;;;;;;;2.77;2.00;;;16.00;99.90;;;;;;5097018;28;20197;-61
2021/05/22 11:56:01;;;;;;;2.53;1.60;;;15.90;99.90;;;;;;5093907;28;20232;-61
2021/05/22 11:58:27;;;;;;;3.67;2.17;;;15.90;99.90;;;;;;5089391;28;20211;-62
2021/05/22 12:00:55;;;;;;;2.63;1.67;;;15.80;99.90;;;;;;5096833;28;20208;-63
2021/05/22 12:03:23;;;;;;;2.60;1.93;;;15.70;99.90;;;;;;5095495;28;20215;-63
2021/05/22 12:05:50;;;;;;;4.37;2.30;;;15.60;99.90;;;;;;5102643;28;20200;-62
2021/05/22 12:08:20;;;;;;;2.20;1.73;;;15.60;99.90;;;;;;5093392;28;20208;-66
2021/05/22 12:10:46;;;;;;;2.40;1.83;;;15.50;99.90;;;;;;5091724;28;20204;-68
2021/05/22 12:13:13;;;;;;;5.27;2.20;;;15.50;99.90;;;;;;5092169;28;20201;-65
2021/05/22 12:15:41;;;;;;;5.90;2.03;;;15.40;99.90;;;;;;5089999;28;20221;-66
2021/05/22 12:18:09;;;;;;;4.57;2.20;;;15.40;99.90;;;;;;5105309;28;20587;-65
2021/05/22 12:20:54;;;;;;;2.70;2.10;;;15.30;99.90;;;;;;5094413;28;20208;-64
2021/05/22 12:23:30;;;;;;;4.60;2.07;;;15.30;99.90;;;;;;5088912;28;20245;-64
2021/05/22 12:25:58;;;;;;;2.80;2.03;;;15.10;99.90;;;;;;5094728;28;20211;-65
2021/05/22 12:28:25;;;;;;;3.27;2.33;;;15.00;99.90;;;;;;5100202;28;20202;-64
2021/05/22 12:30:52;;;;;;;3.07;1.77;;;15.00;99.90;;;;;;5086716;28;20292;-66
2021/05/22 12:33:19;;;;;;;2.17;1.97;;;15.00;99.90;;;;;;5094747;28;20205;-66
2021/05/22 12:35:47;;;;;;;3.20;2.20;;;14.90;99.90;;;;;;5089064;28;20252;-63
2021/05/22 12:38:13;;;;;;;2.67;2.17;;;14.90;99.90;;;;;;5092166;28;20200;-64
2021/05/22 12:40:48;;;;;;;3.40;2.20;;;14.80;99.90;;;;;;5099174;28;20667;-67
2021/05/22 12:43:16;;;;;;;3.60;2.03;;;14.80;99.90;;;;;;5101594;28;20231;-65
2021/05/22 12:45:43;;;;;;;3.47;2.40;;;14.70;99.90;;;;;;5097268;28;20208;-65
2021/05/22 12:48:23;;;;;;;2.67;2.27;;;14.60;99.90;;;;;;5102348;28;20208;-65
2021/05/22 12:50:50;;;;;;;4.40;3.37;;;14.60;99.90;;;;;;5100683;28;20716;-62
2021/05/22 12:53:29;;;;;;;3.00;2.60;;;14.60;99.90;;;;;;5095310;28;20239;-66
2021/05/22 12:56:05;;;;;;;4.97;2.30;;;14.60;99.90;;;;;;5089901;28;20278;-67